Jpo Gemini — A8VF7 — position and weather

sailwx.info

Track history (hours):
 
Tides and Currents Weather Stations Pressure Air Temp Water Temp Dewpoint Dewpoint Depression Visibility Wind Speed Wind Dir Waves Ship Positions

Jpo Gemini

Last reported at 2014-Oct-24 00:00 UTC. Time now 2014-Oct-24 09:34 UTC.
Position N 15°36' W 017°42'.

Length 207 m; draft 11 m.

Type: Cargo ship. MMSI: 636091995.

Wind from 050 at 10 knots

Waves 1.0 meters (3 feet), 5 second period

Barometer 1014.0 mb
Air temperature 28.0 ° C
Visibility: greater than 10.8 NM
Dewpoint 23.9 ° C
Water temperature 26.0 ° C

Date/timePositionNaut miles runAvg speedWind from/ knotsBaromVisibWave heightAir tempDewpointWater temp
2014-Oct-24 00:00N 15°36' W 017°42'114 9.5 050 / 101014.010.8 1.028.023.926.0
2014-Oct-23 12:00N 17°30' W 017°42'12010.0 050 / 101015.010.8 1.029.023.524.0
2014-Oct-23 00:00N 19°30' W 017°42'18 9.0 050 / 101016.0 5.4 1.024.021.125.0
2014-Oct-22 22:00N 19°48' W 017°42'219 9.9 020 / 71015.010.8 0.524.019.6
2014-Oct-22 00:00N 23°24' W 017°06'108 9.0 050 / 101018.0 5.4 1.025.020.726.0
2014-Oct-21 12:00N 25°00' W 016°12'118 9.8 230 / 101019.010.8 1.025.020.726.0
2014-Oct-21 00:00N 26°30' W 014°48'356 9.4 230 / 101018.0 5.4 1.024.018.026.0
2014-Oct-19 10:00N 31°18' W 010°48'6910.8 270 / 71013.010.8 0.524.018.0
2014-Oct-19 03:33N 32°18' W 010°06'1110.5
2014-Oct-19 02:33N 32°26' W 009°59'1010.3
2014-Oct-19 01:33N 32°34' W 009°51'1110.7
2014-Oct-19 00:33N 32°42' W 009°43'1110.8
2014-Oct-18 23:33N 32°51' W 009°35'1110.9
2014-Oct-18 22:33N 32°59' W 009°27'26510.2
2014-Oct-17 20:33N 35°58' W 005°31'9 8.7
2014-Oct-17 19:34N 36°05' W 005°24'4 4.2
2014-Oct-17 18:33N 36°09' W 005°26'0 0.1
2014-Oct-17 17:31N 36°09' W 005°26'0 0.0
2014-Oct-17 16:28N 36°09' W 005°26'0 0.0
2014-Oct-17 15:31N 36°09' W 005°26'0 0.0
2014-Oct-17 14:31N 36°09' W 005°26'0 0.0
2014-Oct-17 13:31N 36°09' W 005°26'0 0.0
2014-Oct-17 12:31N 36°09' W 005°26'0 0.0
2014-Oct-17 11:31N 36°09' W 005°26'0 0.0
2014-Oct-17 10:31N 36°09' W 005°26'0 0.0
2014-Oct-17 09:31N 36°09' W 005°26'0 0.0
2014-Oct-17 08:31N 36°09' W 005°26'0 0.0
2014-Oct-17 07:31N 36°09' W 005°26'0 0.0
2014-Oct-17 06:31N 36°09' W 005°26'0 0.0
2014-Oct-17 05:31N 36°09' W 005°26'0 0.0
2014-Oct-17 04:31N 36°09' W 005°26'0 0.0
2014-Oct-17 03:31N 36°09' W 005°26'2 2.5
2014-Oct-17 02:33N 36°07' W 005°23'6 5.8
2014-Oct-17 01:33N 36°04' W 005°18'1 1.0
2014-Oct-17 00:33N 36°04' W 005°16'1010.1
2014-Oct-16 23:33N 36°07' W 005°04'9 8.8
2014-Oct-16 22:33N 36°05' W 005°15'8 8.1
2014-Oct-16 21:33N 36°07' W 005°05'3 0.6
2014-Oct-16 16:05N 36°04' W 005°06'2 3.0
2014-Oct-16 15:33N 36°04' W 005°08'10 9.8
2014-Oct-16 14:33N 35°60' W 005°19'11 0.3
2014-Oct-14 20:09N 35°57' W 005°32'5 9.0
2014-Oct-14 19:33N 36°00' W 005°27'7 7.2
2014-Oct-14 18:34N 36°07' W 005°25'0 0.5
2014-Oct-14 17:32N 36°08' W 005°25'0 0.0
2014-Oct-14 16:20N 36°08' W 005°25'0 0.0
2014-Oct-14 15:32N 36°08' W 005°25'0 0.0
2014-Oct-14 14:32N 36°08' W 005°25'0 0.0
2014-Oct-14 13:32N 36°08' W 005°25'0 0.0
2014-Oct-14 12:32N 36°08' W 005°25'0 0.0
2014-Oct-14 11:32N 36°08' W 005°25'0 0.0
2014-Oct-14 10:32N 36°08' W 005°25'0 0.0
2014-Oct-14 09:32N 36°08' W 005°25'0 0.0
2014-Oct-14 08:32N 36°08' W 005°25'0 0.0
2014-Oct-14 07:32N 36°08' W 005°25'0 0.0
2014-Oct-14 06:32N 36°08' W 005°25'0 0.0
2014-Oct-14 05:32N 36°08' W 005°25'0 0.0
2014-Oct-14 04:32N 36°08' W 005°25'0 0.0
2014-Oct-14 03:32N 36°08' W 005°25'0 0.0
2014-Oct-14 02:32N 36°08' W 005°25'0 0.0
2014-Oct-14 01:34N 36°08' W 005°25'3 3.3
2014-Oct-14 00:34N 36°05' W 005°22'  
Track history (hours):
 
Tides and Currents Weather Stations Pressure Air Temp Water Temp Dewpoint Dewpoint Depression Visibility Wind Speed Wind Dir Waves Ship Positions

Jpo Gemini

Last reported at 2014-Oct-24 00:00 UTC. Time now 2014-Oct-24 09:34 UTC.
Position N 15°36' W 017°42'.

Length 207 m; draft 11 m.

Type: Cargo ship. MMSI: 636091995.

Wind from 050 at 10 knots

Waves 1.0 meters (3 feet), 5 second period

Barometer 1014.0 mb
Air temperature 28.0 ° C
Visibility: greater than 10.8 NM
Dewpoint 23.9 ° C
Water temperature 26.0 ° C

Date/timePositionNaut miles runAvg speedWind from/ knotsBaromVisibWave heightAir tempDewpointWater temp
2014-Oct-24 00:00N 15°36' W 017°42'114 9.5 050 / 101014.010.8 1.028.023.926.0
2014-Oct-23 12:00N 17°30' W 017°42'12010.0 050 / 101015.010.8 1.029.023.524.0
2014-Oct-23 00:00N 19°30' W 017°42'18 9.0 050 / 101016.0 5.4 1.024.021.125.0
2014-Oct-22 22:00N 19°48' W 017°42'219 9.9 020 / 71015.010.8 0.524.019.6
2014-Oct-22 00:00N 23°24' W 017°06'108 9.0 050 / 101018.0 5.4 1.025.020.726.0
2014-Oct-21 12:00N 25°00' W 016°12'118 9.8 230 / 101019.010.8 1.025.020.726.0
2014-Oct-21 00:00N 26°30' W 014°48'356 9.4 230 / 101018.0 5.4 1.024.018.026.0
2014-Oct-19 10:00N 31°18' W 010°48'6910.8 270 / 71013.010.8 0.524.018.0
2014-Oct-19 03:33N 32°18' W 010°06'1110.5
2014-Oct-19 02:33N 32°26' W 009°59'1010.3
2014-Oct-19 01:33N 32°34' W 009°51'1110.7
2014-Oct-19 00:33N 32°42' W 009°43'1110.8
2014-Oct-18 23:33N 32°51' W 009°35'1110.9
2014-Oct-18 22:33N 32°59' W 009°27'26510.2
2014-Oct-17 20:33N 35°58' W 005°31'9 8.7
2014-Oct-17 19:34N 36°05' W 005°24'4 4.2
2014-Oct-17 18:33N 36°09' W 005°26'0 0.1
2014-Oct-17 17:31N 36°09' W 005°26'0 0.0
2014-Oct-17 16:28N 36°09' W 005°26'0 0.0
2014-Oct-17 15:31N 36°09' W 005°26'0 0.0
2014-Oct-17 14:31N 36°09' W 005°26'0 0.0
2014-Oct-17 13:31N 36°09' W 005°26'0 0.0
2014-Oct-17 12:31N 36°09' W 005°26'0 0.0
2014-Oct-17 11:31N 36°09' W 005°26'0 0.0
2014-Oct-17 10:31N 36°09' W 005°26'0 0.0
2014-Oct-17 09:31N 36°09' W 005°26'0 0.0
2014-Oct-17 08:31N 36°09' W 005°26'0 0.0
2014-Oct-17 07:31N 36°09' W 005°26'0 0.0
2014-Oct-17 06:31N 36°09' W 005°26'0 0.0
2014-Oct-17 05:31N 36°09' W 005°26'0 0.0
2014-Oct-17 04:31N 36°09' W 005°26'0 0.0
2014-Oct-17 03:31N 36°09' W 005°26'2 2.5
2014-Oct-17 02:33N 36°07' W 005°23'6 5.8
2014-Oct-17 01:33N 36°04' W 005°18'1 1.0
2014-Oct-17 00:33N 36°04' W 005°16'1010.1
2014-Oct-16 23:33N 36°07' W 005°04'9 8.8
2014-Oct-16 22:33N 36°05' W 005°15'8 8.1
2014-Oct-16 21:33N 36°07' W 005°05'3 0.6
2014-Oct-16 16:05N 36°04' W 005°06'2 3.0
2014-Oct-16 15:33N 36°04' W 005°08'10 9.8
2014-Oct-16 14:33N 35°60' W 005°19'11 0.3
2014-Oct-14 20:09N 35°57' W 005°32'5 9.0
2014-Oct-14 19:33N 36°00' W 005°27'7 7.2
2014-Oct-14 18:34N 36°07' W 005°25'0 0.5
2014-Oct-14 17:32N 36°08' W 005°25'0 0.0
2014-Oct-14 16:20N 36°08' W 005°25'0 0.0
2014-Oct-14 15:32N 36°08' W 005°25'0 0.0
2014-Oct-14 14:32N 36°08' W 005°25'0 0.0
2014-Oct-14 13:32N 36°08' W 005°25'0 0.0
2014-Oct-14 12:32N 36°08' W 005°25'0 0.0
2014-Oct-14 11:32N 36°08' W 005°25'0 0.0
2014-Oct-14 10:32N 36°08' W 005°25'0 0.0
2014-Oct-14 09:32N 36°08' W 005°25'0 0.0
2014-Oct-14 08:32N 36°08' W 005°25'0 0.0
2014-Oct-14 07:32N 36°08' W 005°25'0 0.0
2014-Oct-14 06:32N 36°08' W 005°25'0 0.0
2014-Oct-14 05:32N 36°08' W 005°25'0 0.0
2014-Oct-14 04:32N 36°08' W 005°25'0 0.0
2014-Oct-14 03:32N 36°08' W 005°25'0 0.0
2014-Oct-14 02:32N 36°08' W 005°25'0 0.0
2014-Oct-14 01:34N 36°08' W 005°25'3 3.3
2014-Oct-14 00:34N 36°05' W 005°22'  

Dump ship's entire track history